Time;durP1;ratioP1;P1;durP2;ratioP2;P2;SDS_P1;SDS_P2;PMS_P1;PMS_P2;Temp;Humidity;BMP_temperature;BMP_pressure;BME280_temperature;BME280_humidity;BME280_pressure;Samples;Min_cycle;Max_cycle;Signal;HPM_P1;HPM_P2
2022/09/15 00:01:50;;;;;;;6.22;2.40;;;16.20;99.90;;;;;;4994989;28;20371;-59
2022/09/15 00:04:16;;;;;;;6.40;2.22;;;16.20;99.90;;;;;;4995546;28;20063;-58
2022/09/15 00:06:41;;;;;;;6.10;2.42;;;16.10;99.90;;;;;;5007686;28;20057;-59
2022/09/15 00:09:07;;;;;;;3.42;2.15;;;16.10;99.90;;;;;;4991626;28;20367;-58
2022/09/15 00:11:35;;;;;;;5.68;2.58;;;16.10;99.90;;;;;;4995253;28;20121;-59
2022/09/15 00:14:03;;;;;;;3.97;2.20;;;16.00;99.90;;;;;;4991525;28;20042;-59
2022/09/15 00:16:31;;;;;;;5.07;2.90;;;16.00;99.90;;;;;;5004998;28;20091;-58
2022/09/15 00:18:57;;;;;;;7.55;3.40;;;15.90;99.90;;;;;;5004465;28;20044;-59
2022/09/15 00:21:29;;;;;;;9.80;3.97;;;15.90;99.90;;;;;;4995147;28;20057;-59
2022/09/15 00:23:57;;;;;;;7.90;3.90;;;15.90;99.90;;;;;;4995701;28;20042;-58
2022/09/15 00:26:25;;;;;;;9.48;3.90;;;15.80;99.90;;;;;;5010886;28;20096;-58
2022/09/15 00:28:51;;;;;;;8.15;3.97;;;15.70;99.90;;;;;;5012401;28;20069;-59
2022/09/15 00:31:21;;;;;;;6.63;3.88;;;15.70;99.90;;;;;;5000182;28;20327;-59
2022/09/15 00:33:53;;;;;;;6.68;3.92;;;15.70;99.90;;;;;;5006128;28;20336;-58
2022/09/15 00:36:19;;;;;;;7.82;3.83;;;15.70;99.90;;;;;;5008287;28;20064;-59
2022/09/15 00:38:45;;;;;;;7.57;4.60;;;15.60;99.90;;;;;;4994236;28;20035;-59
2022/09/15 00:41:14;;;;;;;7.13;4.10;;;15.60;99.90;;;;;;5007117;28;20042;-59
2022/09/15 00:43:45;;;;;;;10.35;4.68;;;15.60;99.90;;;;;;5008460;28;20108;-59
2022/09/15 00:46:12;;;;;;;10.45;4.43;;;15.50;99.90;;;;;;5006285;28;20128;-58
2022/09/15 00:49:05;;;;;;;7.60;4.30;;;15.40;99.90;;;;;;5001346;28;20120;-58
2022/09/15 00:51:48;;;;;;;7.32;3.80;;;15.30;99.90;;;;;;4983551;28;20094;-59
2022/09/15 00:54:18;;;;;;;8.00;3.70;;;15.20;99.90;;;;;;5005321;28;20030;-58
2022/09/15 00:56:48;;;;;;;7.38;3.80;;;15.20;99.90;;;;;;5008988;28;20066;-58
2022/09/15 00:59:21;;;;;;;10.50;4.07;;;15.10;99.90;;;;;;5009493;28;20040;-58
2022/09/15 01:01:50;;;;;;;13.07;3.92;;;15.00;99.90;;;;;;5012624;28;20052;-58
2022/09/15 01:04:16;;;;;;;7.35;3.60;;;15.00;99.90;;;;;;5001124;28;20077;-59
2022/09/15 01:06:46;;;;;;;9.90;3.88;;;15.00;99.90;;;;;;5013555;28;20080;-58
2022/09/15 01:09:23;;;;;;;11.48;3.95;;;14.90;99.90;;;;;;5003800;28;20407;-59
2022/09/15 01:11:49;;;;;;;9.00;3.75;;;14.90;99.90;;;;;;5000219;28;20077;-59
2022/09/15 01:14:15;;;;;;;7.78;3.90;;;14.90;99.90;;;;;;4991672;28;20043;-59
2022/09/15 01:17:26;;;;;;;7.22;4.15;;;14.90;99.90;;;;;;5004469;28;20064;-59
2022/09/15 01:20:19;;;;;;;10.57;4.40;;;14.90;99.90;;;;;;4977108;28;20133;-59
2022/09/15 01:23:13;;;;;;;8.48;4.28;;;14.90;99.90;;;;;;4998620;28;20045;-60
2022/09/15 01:26:06;;;;;;;8.75;4.38;;;14.80;99.90;;;;;;5011436;28;20347;-59
2022/09/15 01:28:41;;;;;;;7.47;4.32;;;14.80;99.90;;;;;;4997555;28;20054;-59
2022/09/15 01:31:24;;;;;;;9.43;4.32;;;14.70;99.90;;;;;;5012424;28;20086;-59
2022/09/15 01:33:56;;;;;;;8.02;4.13;;;14.90;99.90;;;;;;4993199;28;20042;-59
2022/09/15 01:36:55;;;;;;;10.02;4.78;;;14.90;99.90;;;;;;4994454;28;20074;-59
2022/09/15 01:39:27;;;;;;;7.82;4.28;;;15.00;99.90;;;;;;5000732;28;20053;-60
2022/09/15 01:42:05;;;;;;;5.78;3.63;;;15.00;99.90;;;;;;4993159;28;20453;-60
2022/09/15 01:45:06;;;;;;;8.52;3.65;;;15.00;99.90;;;;;;5005703;28;20116;-59
2022/09/15 01:47:34;;;;;;;6.85;3.85;;;15.00;99.90;;;;;;4990626;28;20169;-59
2022/09/15 01:50:06;;;;;;;7.47;3.92;;;15.00;99.90;;;;;;4995164;28;20037;-60
2022/09/15 01:52:32;;;;;;;9.27;3.78;;;15.00;99.90;;;;;;5004207;28;20100;-59
2022/09/15 01:55:04;;;;;;;9.23;3.70;;;15.00;99.90;;;;;;5006574;28;20484;-60
2022/09/15 01:57:32;;;;;;;7.47;3.80;;;15.00;99.90;;;;;;5000407;28;20410;-60
2022/09/15 01:59:59;;;;;;;5.82;3.90;;;15.00;99.90;;;;;;5009176;28;20045;-59
2022/09/15 02:02:47;;;;;;;7.90;3.92;;;15.00;99.90;;;;;;5006315;28;20112;-59
2022/09/15 02:05:29;;;;;;;7.32;3.50;;;15.00;99.90;;;;;;4997377;28;20064;-59
2022/09/15 02:08:03;;;;;;;7.85;3.10;;;15.00;99.90;;;;;;4993985;28;20107;-59
2022/09/15 02:11:13;;;;;;;7.13;3.25;;;15.00;99.90;;;;;;4995906;28;20042;-60
2022/09/15 02:13:55;;;;;;;7.60;3.17;;;15.00;99.90;;;;;;5000433;28;20391;-58
2022/09/15 02:16:23;;;;;;;5.32;2.55;;;15.00;99.90;;;;;;4992773;28;20045;-58
2022/09/15 02:18:55;;;;;;;8.07;2.65;;;15.00;99.90;;;;;;4998143;28;20030;-58
2022/09/15 02:21:28;;;;;;;7.65;2.30;;;15.00;99.90;;;;;;4992810;28;20074;-58
2022/09/15 02:24:02;;;;;;;5.60;2.00;;;15.00;99.90;;;;;;5006677;28;20395;-58
2022/09/15 02:26:31;;;;;;;5.45;2.00;;;15.00;99.90;;;;;;5012175;28;20910;-59
2022/09/15 02:28:59;;;;;;;6.05;2.10;;;15.10;99.90;;;;;;5009334;28;20509;-58
2022/09/15 02:31:26;;;;;;;4.63;1.77;;;15.10;99.90;;;;;;4997763;28;20408;-58
2022/09/15 02:34:10;;;;;;;6.15;1.90;;;15.00;99.90;;;;;;5012337;28;20046;-60
2022/09/15 02:36:36;;;;;;;7.57;2.38;;;15.10;99.90;;;;;;4995061;28;20097;-60
2022/09/15 02:39:06;;;;;;;10.00;2.10;;;15.10;99.90;;;;;;4983519;28;20057;-59
2022/09/15 02:41:34;;;;;;;5.07;1.73;;;15.10;99.90;;;;;;5007382;28;20046;-59
2022/09/15 02:44:00;;;;;;;6.32;1.67;;;15.10;99.90;;;;;;5003935;28;20039;-59
2022/09/15 02:46:26;;;;;;;5.50;1.80;;;15.10;99.90;;;;;;5005973;28;20121;-61
2022/09/15 02:48:52;;;;;;;5.60;1.80;;;15.00;99.90;;;;;;4998944;28;20111;-59
2022/09/15 02:51:18;;;;;;;7.70;1.90;;;15.00;99.90;;;;;;5011525;28;20038;-60
2022/09/15 02:53:45;;;;;;;8.82;1.95;;;14.80;99.90;;;;;;5007072;28;20057;-60
2022/09/15 02:56:11;;;;;;;8.20;2.05;;;15.00;99.90;;;;;;5002353;28;20451;-60
2022/09/15 02:58:36;;;;;;;3.50;1.25;;;14.90;99.90;;;;;;4999710;28;20034;-60
2022/09/15 03:01:04;;;;;;;7.95;1.73;;;15.00;99.90;;;;;;5003616;28;20125;-59
2022/09/15 03:03:31;;;;;;;7.97;1.60;;;15.00;99.90;;;;;;4991805;28;20376;-60
2022/09/15 03:06:15;;;;;;;5.32;1.60;;;15.00;99.90;;;;;;4974585;28;20084;-60
2022/09/15 03:08:53;;;;;;;5.43;1.98;;;15.00;99.90;;;;;;5000242;28;20525;-59
2022/09/15 03:11:21;;;;;;;6.10;1.45;;;14.90;99.90;;;;;;4992299;28;20046;-59
2022/09/15 03:13:47;;;;;;;8.10;1.65;;;14.90;99.90;;;;;;5005574;28;20459;-60
2022/09/15 03:16:14;;;;;;;6.78;1.63;;;15.00;99.90;;;;;;5002614;28;20042;-59
2022/09/15 03:18:41;;;;;;;4.05;1.25;;;14.90;99.90;;;;;;5006698;28;20407;-59
2022/09/15 03:21:12;;;;;;;5.28;1.30;;;14.90;99.90;;;;;;5001835;28;20034;-60
2022/09/15 03:23:38;;;;;;;5.75;1.65;;;14.90;99.90;;;;;;5015428;28;20046;-60
2022/09/15 03:26:04;;;;;;;7.65;1.60;;;15.00;99.90;;;;;;5011288;28;20113;-60
2022/09/15 03:28:30;;;;;;;5.57;1.35;;;14.90;99.90;;;;;;5011493;28;20425;-60
2022/09/15 03:30:56;;;;;;;6.03;1.40;;;14.90;99.90;;;;;;5002914;28;20050;-60
2022/09/15 03:33:25;;;;;;;5.32;1.30;;;14.90;99.90;;;;;;5009584;28;20050;-60
2022/09/15 03:35:51;;;;;;;6.90;1.95;;;14.90;99.90;;;;;;4995470;28;20057;-60
2022/09/15 03:38:18;;;;;;;7.15;1.55;;;14.80;99.90;;;;;;4996648;28;20386;-60
2022/09/15 03:40:54;;;;;;;6.00;1.75;;;14.90;99.90;;;;;;5015199;28;20041;-59
2022/09/15 03:43:19;;;;;;;5.45;1.48;;;14.90;99.90;;;;;;4998246;28;20057;-60
2022/09/15 03:45:45;;;;;;;5.30;1.20;;;14.90;99.90;;;;;;4995039;28;20294;-60
2022/09/15 03:48:11;;;;;;;7.28;1.63;;;14.80;99.90;;;;;;4996222;28;20042;-60
2022/09/15 03:50:36;;;;;;;4.38;1.40;;;14.80;99.90;;;;;;5008687;28;20049;-60
2022/09/15 03:53:02;;;;;;;4.82;1.60;;;14.80;99.90;;;;;;5007530;28;20038;-59
2022/09/15 03:55:28;;;;;;;5.65;1.67;;;14.90;99.90;;;;;;5001231;28;20038;-60
2022/09/15 03:57:54;;;;;;;7.50;1.90;;;14.90;99.90;;;;;;5014772;28;20048;-59
2022/09/15 04:00:20;;;;;;;3.83;1.45;;;14.90;99.90;;;;;;4998276;28;20074;-60
2022/09/15 04:02:46;;;;;;;6.57;1.65;;;14.90;99.90;;;;;;4995465;28;20061;-60
2022/09/15 04:05:12;;;;;;;8.80;1.80;;;14.90;99.90;;;;;;4995188;28;20045;-59
2022/09/15 04:07:38;;;;;;;6.70;1.63;;;14.90;99.90;;;;;;4995260;28;20459;-60
2022/09/15 04:10:06;;;;;;;6.00;1.35;;;14.80;99.90;;;;;;5008196;28;20506;-59
2022/09/15 04:12:31;;;;;;;8.48;1.88;;;14.90;99.90;;;;;;5010628;28;20053;-59
2022/09/15 04:14:57;;;;;;;7.28;1.48;;;14.90;99.90;;;;;;5006057;28;20038;-59
2022/09/15 04:17:23;;;;;;;7.97;1.80;;;14.90;99.90;;;;;;5011387;28;20034;-59
2022/09/15 04:19:48;;;;;;;9.05;2.20;;;14.90;99.90;;;;;;5009092;28;20486;-60
2022/09/15 04:22:14;;;;;;;5.82;1.50;;;14.90;99.90;;;;;;5013419;28;20113;-59
2022/09/15 04:24:40;;;;;;;9.32;1.90;;;14.90;99.90;;;;;;5001549;28;20482;-59
2022/09/15 04:27:05;;;;;;;8.35;2.10;;;14.80;99.90;;;;;;5012311;28;20140;-59
2022/09/15 04:29:31;;;;;;;7.70;1.80;;;14.90;99.90;;;;;;5002431;28;20055;-59
2022/09/15 04:31:57;;;;;;;6.15;1.70;;;14.90;99.90;;;;;;5007698;28;20096;-58
2022/09/15 04:34:23;;;;;;;7.03;1.50;;;14.90;99.90;;;;;;4994863;28;20104;-59
2022/09/15 04:36:49;;;;;;;8.20;1.90;;;14.90;99.90;;;;;;4976831;28;20030;-60
2022/09/15 04:39:15;;;;;;;9.13;1.85;;;14.90;99.90;;;;;;5003861;28;20490;-59
2022/09/15 04:41:41;;;;;;;8.25;1.70;;;14.90;99.90;;;;;;5014008;28;20272;-59
2022/09/15 04:44:07;;;;;;;5.30;1.40;;;14.90;99.90;;;;;;5005246;28;20042;-60
2022/09/15 04:46:32;;;;;;;9.02;1.70;;;14.90;99.90;;;;;;4993982;28;20038;-59
2022/09/15 04:48:58;;;;;;;6.53;1.80;;;14.90;99.90;;;;;;4994577;28;20046;-59
2022/09/15 04:51:24;;;;;;;8.43;2.13;;;14.90;99.90;;;;;;5007631;28;20124;-59
2022/09/15 04:53:50;;;;;;;9.65;2.00;;;14.90;99.90;;;;;;4994864;28;20045;-59
2022/09/15 04:56:21;;;;;;;12.73;1.85;;;14.90;99.90;;;;;;5012515;28;20482;-59
2022/09/15 04:58:50;;;;;;;6.28;1.52;;;14.90;99.90;;;;;;5019575;28;20144;-59
2022/09/15 05:01:19;;;;;;;11.27;2.40;;;14.90;99.90;;;;;;5028359;28;20107;-59
2022/09/15 05:03:45;;;;;;;7.30;1.75;;;14.90;99.90;;;;;;5027208;28;20063;-59
2022/09/15 05:06:15;;;;;;;5.05;1.73;;;14.90;99.90;;;;;;5027661;28;20041;-59
2022/09/15 05:08:40;;;;;;;9.90;2.22;;;14.90;99.90;;;;;;5023872;28;20053;-59
2022/09/15 05:11:11;;;;;;;6.60;1.77;;;14.90;99.90;;;;;;5026379;28;20041;-59
2022/09/15 05:13:38;;;;;;;7.28;1.55;;;14.90;99.90;;;;;;5029241;28;20056;-60
2022/09/15 05:16:13;;;;;;;8.07;1.80;;;14.90;99.90;;;;;;5022845;28;20466;-60
2022/09/15 05:18:41;;;;;;;6.57;1.45;;;14.90;99.90;;;;;;5007908;28;20049;-59
2022/09/15 05:21:09;;;;;;;6.40;1.95;;;14.90;99.90;;;;;;5026471;28;20037;-59
2022/09/15 05:23:35;;;;;;;4.97;1.45;;;14.90;99.90;;;;;;5032082;28;20391;-59
2022/09/15 05:26:04;;;;;;;6.32;1.67;;;14.90;99.90;;;;;;5000650;28;20049;-58
2022/09/15 05:28:32;;;;;;;6.40;1.40;;;14.90;99.90;;;;;;5012155;28;20321;-59
2022/09/15 05:30:58;;;;;;;8.02;2.10;;;14.90;99.90;;;;;;5013867;28;20076;-59
2022/09/15 05:33:24;;;;;;;6.07;1.60;;;14.90;99.90;;;;;;5029739;28;20037;-59
2022/09/15 05:35:58;;;;;;;5.65;1.48;;;15.00;99.90;;;;;;5011636;28;20041;-59
2022/09/15 05:38:26;;;;;;;9.20;1.70;;;15.00;99.90;;;;;;5022492;28;20595;-59
2022/09/15 05:40:52;;;;;;;9.85;1.98;;;15.00;99.90;;;;;;5024313;28;20143;-59
2022/09/15 05:43:19;;;;;;;7.65;1.60;;;15.00;99.90;;;;;;5002054;28;20078;-59
2022/09/15 05:45:53;;;;;;;8.73;1.83;;;14.90;99.90;;;;;;5013185;28;20046;-59
2022/09/15 05:48:19;;;;;;;8.18;2.03;;;15.00;99.90;;;;;;5011737;28;20100;-61
2022/09/15 05:50:50;;;;;;;7.63;1.90;;;15.00;99.90;;;;;;5020570;28;20149;-61
2022/09/15 05:53:16;;;;;;;8.95;1.65;;;15.00;99.90;;;;;;5018025;28;20058;-61
2022/09/15 05:55:41;;;;;;;9.15;1.80;;;15.00;99.90;;;;;;5008319;28;20508;-61
2022/09/15 05:58:07;;;;;;;8.40;1.63;;;15.00;99.90;;;;;;5039529;28;20099;-61
2022/09/15 06:00:33;;;;;;;5.32;1.77;;;15.00;99.90;;;;;;5043853;28;20034;-60
2022/09/15 06:02:58;;;;;;;6.22;1.52;;;15.00;99.90;;;;;;5048376;28;20124;-60
2022/09/15 06:05:24;;;;;;;5.75;1.42;;;15.10;99.90;;;;;;5038539;28;20418;-59
2022/09/15 06:07:53;;;;;;;7.38;1.50;;;15.10;99.90;;;;;;5026179;28;20102;-62
2022/09/15 06:10:21;;;;;;;7.57;2.00;;;15.20;99.90;;;;;;5029685;28;20038;-60
2022/09/15 06:12:48;;;;;;;6.10;1.52;;;15.20;99.90;;;;;;5025896;28;20108;-60
2022/09/15 06:15:14;;;;;;;7.95;2.00;;;15.30;99.90;;;;;;5032281;28;20048;-61
2022/09/15 06:17:40;;;;;;;8.15;1.95;;;15.30;99.90;;;;;;5026349;28;20422;-61
2022/09/15 06:20:06;;;;;;;8.43;1.90;;;15.30;99.90;;;;;;5026198;28;20039;-61
2022/09/15 06:22:32;;;;;;;9.00;1.85;;;15.30;99.90;;;;;;5025096;28;20050;-61
2022/09/15 06:24:58;;;;;;;9.13;2.28;;;15.30;99.90;;;;;;5016745;28;20048;-60
2022/09/15 06:27:24;;;;;;;17.27;3.00;;;15.40;99.90;;;;;;5017140;28;20104;-59
2022/09/15 06:29:50;;;;;;;9.93;2.50;;;15.40;99.90;;;;;;5013165;28;20049;-60
2022/09/15 06:32:15;;;;;;;12.25;3.95;;;15.40;99.90;;;;;;5022509;28;20183;-61
2022/09/15 06:34:41;;;;;;;12.25;3.22;;;15.40;99.90;;;;;;5012665;28;20057;-61
2022/09/15 06:37:07;;;;;;;9.45;2.95;;;15.50;99.90;;;;;;5000865;28;20061;-61
2022/09/15 06:39:33;;;;;;;8.25;2.40;;;15.50;99.90;;;;;;5009979;28;20045;-60
2022/09/15 06:42:00;;;;;;;7.68;2.20;;;15.60;99.90;;;;;;5006591;28;20180;-61
2022/09/15 06:44:26;;;;;;;9.50;2.13;;;15.70;99.90;;;;;;5005235;28;20080;-60
2022/09/15 06:46:51;;;;;;;7.60;1.70;;;15.70;99.90;;;;;;5011457;28;20460;-62
2022/09/15 06:49:18;;;;;;;7.35;1.58;;;15.70;99.90;;;;;;5013300;28;20414;-62
2022/09/15 06:51:44;;;;;;;8.05;1.80;;;15.80;99.90;;;;;;5012946;28;20046;-61
2022/09/15 06:54:10;;;;;;;7.68;1.92;;;15.80;99.90;;;;;;5016265;28;20340;-61
2022/09/15 06:56:36;;;;;;;7.65;1.73;;;15.90;99.90;;;;;;5019932;28;20034;-60
2022/09/15 06:59:02;;;;;;;8.15;1.65;;;16.00;99.90;;;;;;5003191;28;20107;-60
2022/09/15 07:01:30;;;;;;;10.10;2.35;;;16.10;99.90;;;;;;5006280;28;20096;-60
2022/09/15 07:03:58;;;;;;;7.85;1.77;;;16.20;99.90;;;;;;4996599;28;20104;-60
2022/09/15 07:06:27;;;;;;;7.68;1.95;;;16.20;99.90;;;;;;5016473;28;20050;-60
2022/09/15 07:08:53;;;;;;;5.57;1.60;;;16.30;99.90;;;;;;5013587;28;20146;-60
2022/09/15 07:11:19;;;;;;;8.70;2.15;;;16.40;99.90;;;;;;5015966;28;20042;-61
2022/09/15 07:13:47;;;;;;;8.20;2.00;;;16.40;99.90;;;;;;5002753;28;20459;-61
2022/09/15 07:16:13;;;;;;;7.93;1.67;;;16.40;99.90;;;;;;5022290;28;20038;-60
2022/09/15 07:18:39;;;;;;;8.35;1.80;;;16.40;99.90;;;;;;4994584;28;20042;-61
2022/09/15 07:21:07;;;;;;;8.68;1.83;;;16.40;99.90;;;;;;5001702;28;20482;-60
2022/09/15 07:23:34;;;;;;;9.43;1.80;;;16.40;99.90;;;;;;5015956;28;20038;-60
2022/09/15 07:26:18;;;;;;;8.35;1.70;;;16.40;99.90;;;;;;5016236;28;20042;-60
2022/09/15 07:28:48;;;;;;;7.22;1.60;;;16.50;99.90;;;;;;5003198;28;20050;-60
2022/09/15 07:31:17;;;;;;;9.15;1.70;;;16.50;99.90;;;;;;5015678;28;20045;-60
2022/09/15 07:33:43;;;;;;;8.20;1.75;;;16.40;99.90;;;;;;5008380;28;20042;-60
2022/09/15 07:36:09;;;;;;;6.47;1.50;;;16.50;99.90;;;;;;4995841;28;20035;-62
2022/09/15 07:38:40;;;;;;;5.65;1.35;;;16.60;99.90;;;;;;5010855;28;20179;-61
2022/09/15 07:41:19;;;;;;;4.57;1.30;;;16.60;99.90;;;;;;4988212;28;20534;-62
2022/09/15 07:43:50;;;;;;;6.32;1.42;;;16.70;99.90;;;;;;4998464;28;20416;-60
2022/09/15 07:46:17;;;;;;;5.60;1.50;;;16.90;99.90;;;;;;4995753;28;20157;-60
2022/09/15 07:48:45;;;;;;;4.40;1.60;;;16.90;99.90;;;;;;5009313;28;20126;-60
2022/09/15 07:51:11;;;;;;;8.73;1.70;;;17.00;99.90;;;;;;4978212;28;20082;-61
2022/09/15 07:53:36;;;;;;;6.65;1.40;;;17.00;99.90;;;;;;4998728;28;20038;-59
2022/09/15 07:56:02;;;;;;;5.43;1.40;;;17.00;99.90;;;;;;4997844;28;20427;-61
2022/09/15 07:58:28;;;;;;;8.95;1.67;;;16.90;99.90;;;;;;4997287;28;20046;-60
2022/09/15 08:00:59;;;;;;;3.58;1.25;;;16.90;99.90;;;;;;5007335;28;20053;-60
2022/09/15 08:03:25;;;;;;;6.55;1.30;;;16.90;99.90;;;;;;4978306;28;20050;-61
2022/09/15 08:05:56;;;;;;;5.13;1.30;;;16.80;99.90;;;;;;4978059;28;20053;-60
2022/09/15 08:08:22;;;;;;;6.85;1.40;;;16.70;99.90;;;;;;5006925;28;20041;-60
2022/09/15 08:10:47;;;;;;;6.80;1.70;;;16.70;99.90;;;;;;5009134;28;20105;-61
2022/09/15 08:13:13;;;;;;;5.57;1.40;;;16.70;99.90;;;;;;4995946;28;20312;-61
2022/09/15 08:15:39;;;;;;;6.70;1.77;;;16.70;99.90;;;;;;4995198;28;20113;-63
2022/09/15 08:18:05;;;;;;;6.75;2.03;;;16.80;99.90;;;;;;4995218;28;20038;-60
2022/09/15 08:20:31;;;;;;;5.75;1.60;;;16.90;99.90;;;;;;4995640;28;20042;-62
2022/09/15 08:22:57;;;;;;;5.88;1.50;;;17.00;99.90;;;;;;4995433;28;20045;-61
2022/09/15 08:25:23;;;;;;;6.90;1.70;;;17.10;99.90;;;;;;5008124;28;20084;-61
2022/09/15 08:27:49;;;;;;;5.60;1.85;;;17.20;99.90;;;;;;4996380;28;20034;-62
2022/09/15 08:30:14;;;;;;;5.22;1.60;;;17.30;99.90;;;;;;4996403;28;20725;-61
2022/09/15 08:32:40;;;;;;;9.52;1.88;;;17.40;99.90;;;;;;5014238;28;20471;-62
2022/09/15 08:35:07;;;;;;;9.95;2.55;;;17.40;99.90;;;;;;5014472;28;20467;-60
2022/09/15 08:37:33;;;;;;;9.77;3.03;;;17.40;99.90;;;;;;5014593;28;20045;-62
2022/09/15 08:39:58;;;;;;;7.57;1.92;;;17.40;99.90;;;;;;5003573;28;20344;-61
2022/09/15 08:42:25;;;;;;;10.80;2.92;;;17.40;99.90;;;;;;5014226;28;20465;-61
2022/09/15 08:45:06;;;;;;;8.77;2.85;;;17.40;99.90;;;;;;5014584;28;20166;-61
2022/09/15 08:47:40;;;;;;;10.15;3.08;;;17.50;99.90;;;;;;5004957;28;20048;-61
2022/09/15 08:50:30;;;;;;;11.77;3.17;;;17.40;99.90;;;;;;5011023;28;20037;-60
2022/09/15 08:52:58;;;;;;;12.60;3.67;;;17.50;99.90;;;;;;5003312;28;20730;-61
2022/09/15 08:55:32;;;;;;;9.18;3.72;;;17.60;99.90;;;;;;5005113;28;20114;-61
2022/09/15 08:57:59;;;;;;;13.55;5.20;;;17.60;99.90;;;;;;4990413;28;20042;-62
2022/09/15 09:00:30;;;;;;;12.18;5.22;;;17.70;99.90;;;;;;4994323;28;20042;-61
2022/09/15 09:03:11;;;;;;;16.67;7.82;;;17.80;99.90;;;;;;5011622;28;20124;-61
2022/09/15 09:06:06;;;;;;;18.35;8.13;;;17.90;99.90;;;;;;5012337;28;20129;-61
2022/09/15 09:08:59;;;;;;;20.13;8.60;;;18.10;99.90;;;;;;4997054;28;20072;-60
2022/09/15 09:11:45;;;;;;;13.57;4.18;;;18.20;99.90;;;;;;5010781;28;20041;-60
2022/09/15 09:14:35;;;;;;;6.50;2.55;;;18.20;99.90;;;;;;5013561;28;20034;-61
2022/09/15 09:17:19;;;;;;;12.95;2.20;;;18.30;99.90;;;;;;5004778;28;20064;-60
2022/09/15 09:19:51;;;;;;;9.35;2.00;;;18.10;99.90;;;;;;5011148;28;20073;-60
2022/09/15 09:22:22;;;;;;;8.63;1.70;;;18.00;99.90;;;;;;5004241;28;20148;-60
2022/09/15 09:24:52;;;;;;;5.10;1.23;;;18.10;99.90;;;;;;5014385;28;20042;-60
2022/09/15 09:27:28;;;;;;;9.07;2.00;;;18.30;99.90;;;;;;5012928;28;20050;-60
2022/09/15 09:30:11;;;;;;;8.88;2.20;;;18.60;99.90;;;;;;5008448;28;20126;-59
2022/09/15 09:33:07;;;;;;;6.10;1.40;;;18.80;99.90;;;;;;4996481;28;20045;-59
2022/09/15 09:35:51;;;;;;;3.90;1.40;;;18.90;99.90;;;;;;5013927;28;20046;-60
2022/09/15 09:38:26;;;;;;;10.73;1.85;;;19.10;99.90;;;;;;4999665;28;20037;-59
2022/09/15 09:40:52;;;;;;;6.28;1.55;;;19.10;99.90;;;;;;5004228;28;20042;-61
2022/09/15 09:43:18;;;;;;;5.65;1.30;;;19.00;99.90;;;;;;4993931;28;20336;-61
2022/09/15 09:45:44;;;;;;;15.18;2.58;;;18.90;99.90;;;;;;5002283;28;20042;-61
2022/09/15 09:48:22;;;;;;;8.43;2.17;;;18.90;99.90;;;;;;5012903;28;20060;-61
2022/09/15 09:50:49;;;;;;;5.63;1.70;;;18.90;99.90;;;;;;4995596;28;20038;-62
2022/09/15 09:53:24;;;;;;;6.25;2.35;;;18.80;99.90;;;;;;5013690;28;20057;-60
2022/09/15 09:55:49;;;;;;;7.55;2.45;;;18.80;99.90;;;;;;5013163;28;20509;-60
2022/09/15 09:58:21;;;;;;;10.80;2.92;;;18.90;99.90;;;;;;5013451;28;20090;-60
2022/09/15 10:00:47;;;;;;;6.88;2.17;;;18.80;99.90;;;;;;5013576;28;20400;-60
2022/09/15 10:03:15;;;;;;;4.97;1.50;;;18.80;99.90;;;;;;4992549;28;20042;-60
2022/09/15 10:05:42;;;;;;;3.55;1.30;;;18.80;99.90;;;;;;5011743;28;20072;-60
2022/09/15 10:08:19;;;;;;;4.15;1.17;;;18.80;99.90;;;;;;5013120;28;20046;-62
2022/09/15 10:10:53;;;;;;;4.60;1.30;;;18.80;99.90;;;;;;4999401;28;20035;-60
2022/09/15 10:13:20;;;;;;;6.20;1.90;;;18.70;99.90;;;;;;5013569;28;20439;-60
2022/09/15 10:15:52;;;;;;;7.65;1.83;;;18.80;99.90;;;;;;5013462;28;20364;-59
2022/09/15 10:18:31;;;;;;;4.95;1.80;;;18.80;99.90;;;;;;4996431;28;20163;-59
2022/09/15 10:20:58;;;;;;;9.13;2.88;;;18.80;99.90;;;;;;5011727;28;20046;-59
2022/09/15 10:23:26;;;;;;;10.77;2.72;;;18.60;99.90;;;;;;5009994;28;20091;-61
2022/09/15 10:26:16;;;;;;;10.50;3.13;;;18.50;99.90;;;;;;5011174;28;20049;-60
2022/09/15 10:28:43;;;;;;;5.78;1.85;;;18.40;99.90;;;;;;5009503;28;20072;-60
2022/09/15 10:31:36;;;;;;;3.30;1.30;;;18.20;99.90;;;;;;5024249;28;20053;-60
2022/09/15 10:34:38;;;;;;;3.13;1.10;;;18.40;99.90;;;;;;5005108;28;20458;-60
2022/09/15 10:37:16;;;;;;;2.65;0.95;;;18.40;99.90;;;;;;4927135;29;20551;-60
2022/09/15 10:39:48;;;;;;;1.98;0.88;;;18.40;99.90;;;;;;4992138;28;20071;-60
2022/09/15 10:42:34;;;;;;;18.15;4.13;;;18.50;99.90;;;;;;5023597;28;20037;-62
2022/09/15 10:45:35;;;;;;;4.80;1.20;;;18.60;99.90;;;;;;5018570;28;20045;-60
2022/09/15 10:48:05;;;;;;;3.10;0.98;;;18.60;99.90;;;;;;4981772;28;20046;-59
2022/09/15 10:50:53;;;;;;;4.22;1.13;;;18.70;99.90;;;;;;4995781;28;20049;-60
2022/09/15 10:53:45;;;;;;;4.88;1.20;;;18.90;99.90;;;;;;5007674;28;20038;-61
2022/09/15 10:56:16;;;;;;;5.88;1.52;;;19.10;99.90;;;;;;5012472;28;20079;-60
2022/09/15 10:59:07;;;;;;;6.00;1.30;;;19.00;99.90;;;;;;5008295;28;20037;-61
2022/09/15 11:02:12;;;;;;;3.92;1.23;;;18.90;99.90;;;;;;5001811;28;20114;-61
2022/09/15 11:05:09;;;;;;;4.80;1.30;;;18.80;99.90;;;;;;5012028;28;20175;-60
2022/09/15 11:08:06;;;;;;;5.53;1.70;;;18.90;99.90;;;;;;5018394;28;20042;-61
2022/09/15 11:10:42;;;;;;;7.72;1.90;;;19.10;99.90;;;;;;5024299;28;20048;-61
2022/09/15 11:13:18;;;;;;;5.75;1.65;;;19.20;99.90;;;;;;5017930;28;20045;-63
2022/09/15 11:16:06;;;;;;;6.20;1.70;;;19.30;99.90;;;;;;5022094;28;20052;-62
2022/09/15 11:18:51;;;;;;;7.55;1.83;;;19.30;99.90;;;;;;5008050;28;20446;-60
2022/09/15 11:21:46;;;;;;;7.72;2.25;;;19.30;99.90;;;;;;5005928;28;20121;-61
2022/09/15 11:24:26;;;;;;;7.22;1.67;;;19.20;99.90;;;;;;5013669;28;20467;-61
2022/09/15 11:27:04;;;;;;;5.65;2.08;;;19.00;99.90;;;;;;5012296;28;20033;-60
2022/09/15 11:29:51;;;;;;;10.50;2.05;;;18.90;99.90;;;;;;5004350;28;20054;-61
2022/09/15 11:32:25;;;;;;;5.35;1.50;;;18.70;99.90;;;;;;5001685;28;20034;-61
2022/09/15 11:35:05;;;;;;;4.70;1.60;;;18.50;99.90;;;;;;5012553;28;20042;-60
2022/09/15 11:37:42;;;;;;;5.43;1.35;;;18.50;99.90;;;;;;5016471;28;20037;-61
2022/09/15 11:40:38;;;;;;;8.20;2.25;;;18.50;99.90;;;;;;4993648;28;20049;-61
2022/09/15 11:43:44;;;;;;;9.45;3.15;;;18.50;99.90;;;;;;5017552;28;20079;-61
2022/09/15 11:46:17;;;;;;;11.13;3.80;;;18.60;99.90;;;;;;4985998;28;20124;-60
2022/09/15 11:48:58;;;;;;;12.20;5.00;;;18.70;99.90;;;;;;5016758;28;20342;-60
2022/09/15 11:51:27;;;;;;;11.57;4.90;;;18.60;99.90;;;;;;5011321;28;20406;-59
2022/09/15 11:54:19;;;;;;;7.65;2.80;;;18.70;99.90;;;;;;5018451;28;20038;-60
2022/09/15 11:56:46;;;;;;;10.00;1.92;;;18.70;99.90;;;;;;5012144;28;20064;-61
2022/09/15 11:59:37;;;;;;;8.10;1.50;;;18.70;99.90;;;;;;5009696;28;20042;-60
2022/09/15 12:02:29;;;;;;;3.38;1.40;;;18.70;99.90;;;;;;5021213;28;20355;-60
2022/09/15 12:05:02;;;;;;;6.93;2.05;;;18.70;99.90;;;;;;4988994;28;20075;-61
2022/09/15 12:07:31;;;;;;;5.40;2.08;;;18.70;99.90;;;;;;5009409;28;20042;-60
2022/09/15 12:10:25;;;;;;;5.57;1.70;;;18.60;99.90;;;;;;5020165;28;20122;-61
2022/09/15 12:12:54;;;;;;;3.92;1.50;;;18.50;99.90;;;;;;5011497;28;20073;-60
2022/09/15 12:15:26;;;;;;;6.28;1.10;;;18.60;99.90;;;;;;5016328;28;20055;-59
2022/09/15 12:18:18;;;;;;;4.05;1.10;;;18.70;99.90;;;;;;5009224;28;20459;-61
2022/09/15 12:20:58;;;;;;;5.05;1.30;;;19.10;99.90;;;;;;5016498;28;20419;-60
2022/09/15 12:23:32;;;;;;;6.78;1.50;;;19.40;99.90;;;;;;5008265;28;20099;-60
2022/09/15 12:26:23;;;;;;;6.50;1.35;;;19.40;99.90;;;;;;5014516;28;20049;-61
2022/09/15 12:28:53;;;;;;;3.95;1.20;;;19.40;99.90;;;;;;4985994;28;20432;-60
2022/09/15 12:31:25;;;;;;;2.65;0.95;;;19.10;99.90;;;;;;5009620;28;20458;-60
2022/09/15 12:34:22;;;;;;;4.00;1.00;;;19.00;99.90;;;;;;5007976;28;20049;-60
2022/09/15 12:36:50;;;;;;;1.90;0.75;;;18.80;99.90;;;;;;5027235;28;20038;-60
2022/09/15 12:39:28;;;;;;;4.78;1.00;;;18.60;99.90;;;;;;5009995;28;20058;-62
2022/09/15 12:42:00;;;;;;;4.40;1.30;;;18.60;99.90;;;;;;5030043;28;20057;-61
2022/09/15 12:44:34;;;;;;;6.32;1.25;;;18.30;99.90;;;;;;5034596;28;20049;-62
2022/09/15 12:47:00;;;;;;;;;;;18.10;99.90;;;;;;5019341;28;20370;-60
2022/09/15 12:49:40;;;;;;;6.97;1.40;;;17.90;99.90;;;;;;5008257;28;20433;-61
2022/09/15 12:52:09;;;;;;;5.93;1.38;;;17.90;99.90;;;;;;5028056;28;20037;-61
2022/09/15 12:54:37;;;;;;;3.83;1.60;;;17.70;99.90;;;;;;5020507;28;20030;-62
2022/09/15 12:57:05;;;;;;;5.22;1.77;;;17.70;99.90;;;;;;5027904;28;20052;-60
2022/09/15 12:59:31;;;;;;;7.75;1.85;;;17.40;99.90;;;;;;5007806;28;20038;-62
2022/09/15 13:01:57;;;;;;;3.40;1.35;;;17.30;99.90;;;;;;4996547;28;20460;-60
2022/09/15 13:04:42;;;;;;;6.72;1.58;;;17.30;99.90;;;;;;5021946;28;20042;-60
2022/09/15 13:07:14;;;;;;;9.05;1.80;;;17.30;99.90;;;;;;5018637;28;20141;-60
2022/09/15 13:09:44;;;;;;;5.78;1.80;;;17.10;99.90;;;;;;5029997;28;20049;-61
2022/09/15 13:12:14;;;;;;;7.15;1.70;;;17.20;99.90;;;;;;5033235;28;20049;-61